sensor_id;sensor_type;location;lat;lon;timestamp;P1;durP1;ratioP1;P2;durP2;ratioP2
9914;SDS011;4996;48.746;9.174;2024-03-02T00:00:03;14.87;;;10.50;;
9914;SDS011;4996;48.746;9.174;2024-03-02T00:05:10;12.00;;;8.03;;
9914;SDS011;4996;48.746;9.174;2024-03-02T00:07:37;14.27;;;8.50;;
9914;SDS011;4996;48.746;9.174;2024-03-02T00:10:07;14.50;;;8.60;;
9914;SDS011;4996;48.746;9.174;2024-03-02T00:12:37;13.60;;;8.43;;
9914;SDS011;4996;48.746;9.174;2024-03-02T00:15:05;13.90;;;8.73;;
9914;SDS011;4996;48.746;9.174;2024-03-02T00:17:51;13.37;;;7.57;;
9914;SDS011;4996;48.746;9.174;2024-03-02T00:20:18;15.20;;;8.80;;
9914;SDS011;4996;48.746;9.174;2024-03-02T00:22:47;12.93;;;8.27;;
9914;SDS011;4996;48.746;9.174;2024-03-02T00:25:13;13.10;;;7.90;;
9914;SDS011;4996;48.746;9.174;2024-03-02T00:27:38;11.03;;;8.03;;
9914;SDS011;4996;48.746;9.174;2024-03-02T00:33:21;9.63;;;7.17;;
9914;SDS011;4996;48.746;9.174;2024-03-02T00:35:48;14.27;;;8.07;;
9914;SDS011;4996;48.746;9.174;2024-03-02T00:38:14;11.43;;;7.50;;
9914;SDS011;4996;48.746;9.174;2024-03-02T00:40:41;11.30;;;7.10;;
9914;SDS011;4996;48.746;9.174;2024-03-02T00:43:19;13.13;;;7.80;;
9914;SDS011;4996;48.746;9.174;2024-03-02T00:46:03;11.23;;;7.13;;
9914;SDS011;4996;48.746;9.174;2024-03-02T00:48:29;13.87;;;8.37;;
9914;SDS011;4996;48.746;9.174;2024-03-02T00:50:56;14.20;;;9.60;;
9914;SDS011;4996;48.746;9.174;2024-03-02T00:53:22;12.70;;;8.50;;
9914;SDS011;4996;48.746;9.174;2024-03-02T00:55:51;12.33;;;7.97;;
9914;SDS011;4996;48.746;9.174;2024-03-02T00:58:17;9.57;;;7.03;;
9914;SDS011;4996;48.746;9.174;2024-03-02T01:00:42;14.70;;;8.10;;
9914;SDS011;4996;48.746;9.174;2024-03-02T01:03:08;11.00;;;7.10;;
9914;SDS011;4996;48.746;9.174;2024-03-02T01:05:35;13.90;;;8.00;;
9914;SDS011;4996;48.746;9.174;2024-03-02T01:08:01;12.73;;;7.90;;
9914;SDS011;4996;48.746;9.174;2024-03-02T01:10:27;15.33;;;9.03;;
9914;SDS011;4996;48.746;9.174;2024-03-02T01:12:52;15.70;;;8.83;;
9914;SDS011;4996;48.746;9.174;2024-03-02T01:15:18;18.83;;;9.40;;
9914;SDS011;4996;48.746;9.174;2024-03-02T01:17:44;12.53;;;9.33;;
9914;SDS011;4996;48.746;9.174;2024-03-02T01:20:09;16.20;;;8.97;;
9914;SDS011;4996;48.746;9.174;2024-03-02T01:22:35;9.57;;;6.33;;
9914;SDS011;4996;48.746;9.174;2024-03-02T01:25:01;12.47;;;7.70;;
9914;SDS011;4996;48.746;9.174;2024-03-02T01:27:27;14.17;;;7.80;;
9914;SDS011;4996;48.746;9.174;2024-03-02T01:29:53;14.03;;;7.67;;
9914;SDS011;4996;48.746;9.174;2024-03-02T01:32:19;16.43;;;9.33;;
9914;SDS011;4996;48.746;9.174;2024-03-02T01:34:45;15.07;;;8.40;;
9914;SDS011;4996;48.746;9.174;2024-03-02T01:37:11;13.87;;;7.80;;
9914;SDS011;4996;48.746;9.174;2024-03-02T01:39:36;14.80;;;9.00;;
9914;SDS011;4996;48.746;9.174;2024-03-02T01:42:02;14.40;;;8.40;;
9914;SDS011;4996;48.746;9.174;2024-03-02T01:44:27;12.97;;;8.00;;
9914;SDS011;4996;48.746;9.174;2024-03-02T01:46:53;12.43;;;8.10;;
9914;SDS011;4996;48.746;9.174;2024-03-02T01:49:19;16.97;;;8.30;;
9914;SDS011;4996;48.746;9.174;2024-03-02T01:51:44;12.13;;;8.37;;
9914;SDS011;4996;48.746;9.174;2024-03-02T01:54:10;14.63;;;8.57;;
9914;SDS011;4996;48.746;9.174;2024-03-02T01:56:35;11.00;;;7.00;;
9914;SDS011;4996;48.746;9.174;2024-03-02T01:59:01;14.33;;;8.80;;
9914;SDS011;4996;48.746;9.174;2024-03-02T02:01:27;12.47;;;7.70;;
9914;SDS011;4996;48.746;9.174;2024-03-02T02:03:52;12.63;;;8.70;;
9914;SDS011;4996;48.746;9.174;2024-03-02T02:06:18;11.77;;;6.87;;
9914;SDS011;4996;48.746;9.174;2024-03-02T02:08:43;11.97;;;8.50;;
9914;SDS011;4996;48.746;9.174;2024-03-02T02:11:10;13.00;;;8.77;;
9914;SDS011;4996;48.746;9.174;2024-03-02T02:13:35;12.33;;;8.07;;
9914;SDS011;4996;48.746;9.174;2024-03-02T02:16:07;14.00;;;8.90;;
9914;SDS011;4996;48.746;9.174;2024-03-02T02:18:33;12.27;;;7.70;;
9914;SDS011;4996;48.746;9.174;2024-03-02T02:21:00;13.00;;;7.40;;
9914;SDS011;4996;48.746;9.174;2024-03-02T02:23:25;13.50;;;8.30;;
9914;SDS011;4996;48.746;9.174;2024-03-02T02:25:51;14.10;;;7.80;;
9914;SDS011;4996;48.746;9.174;2024-03-02T02:28:16;16.30;;;8.23;;
9914;SDS011;4996;48.746;9.174;2024-03-02T02:30:42;17.17;;;8.50;;
9914;SDS011;4996;48.746;9.174;2024-03-02T02:33:08;11.63;;;7.70;;
9914;SDS011;4996;48.746;9.174;2024-03-02T02:35:34;12.53;;;7.87;;
9914;SDS011;4996;48.746;9.174;2024-03-02T02:37:59;10.40;;;7.60;;
9914;SDS011;4996;48.746;9.174;2024-03-02T02:40:25;17.17;;;8.03;;
9914;SDS011;4996;48.746;9.174;2024-03-02T02:42:52;9.77;;;7.00;;
9914;SDS011;4996;48.746;9.174;2024-03-02T02:45:17;14.40;;;7.83;;
9914;SDS011;4996;48.746;9.174;2024-03-02T02:47:43;9.10;;;6.63;;
9914;SDS011;4996;48.746;9.174;2024-03-02T02:50:10;13.33;;;8.10;;
9914;SDS011;4996;48.746;9.174;2024-03-02T02:52:37;12.27;;;7.53;;
9914;SDS011;4996;48.746;9.174;2024-03-02T02:55:05;13.80;;;8.60;;
9914;SDS011;4996;48.746;9.174;2024-03-02T02:57:39;9.37;;;6.40;;
9914;SDS011;4996;48.746;9.174;2024-03-02T03:00:07;11.37;;;7.47;;
9914;SDS011;4996;48.746;9.174;2024-03-02T03:02:37;13.90;;;7.77;;
9914;SDS011;4996;48.746;9.174;2024-03-02T03:05:04;13.43;;;7.23;;
9914;SDS011;4996;48.746;9.174;2024-03-02T03:07:33;10.80;;;7.20;;
9914;SDS011;4996;48.746;9.174;2024-03-02T03:10:03;16.40;;;7.70;;
9914;SDS011;4996;48.746;9.174;2024-03-02T03:12:29;14.67;;;8.10;;
9914;SDS011;4996;48.746;9.174;2024-03-02T03:14:57;14.03;;;7.70;;
9914;SDS011;4996;48.746;9.174;2024-03-02T03:17:23;11.70;;;7.50;;
9914;SDS011;4996;48.746;9.174;2024-03-02T03:19:49;10.97;;;7.80;;
9914;SDS011;4996;48.746;9.174;2024-03-02T03:22:15;13.50;;;6.60;;
9914;SDS011;4996;48.746;9.174;2024-03-02T03:24:41;10.10;;;6.40;;
9914;SDS011;4996;48.746;9.174;2024-03-02T03:27:07;14.30;;;7.70;;
9914;SDS011;4996;48.746;9.174;2024-03-02T03:29:33;12.50;;;7.23;;
9914;SDS011;4996;48.746;9.174;2024-03-02T03:32:01;13.40;;;8.17;;
9914;SDS011;4996;48.746;9.174;2024-03-02T03:34:27;10.63;;;8.23;;
9914;SDS011;4996;48.746;9.174;2024-03-02T03:36:54;10.73;;;8.10;;
9914;SDS011;4996;48.746;9.174;2024-03-02T03:39:19;12.50;;;7.23;;
9914;SDS011;4996;48.746;9.174;2024-03-02T03:41:45;17.03;;;9.00;;
9914;SDS011;4996;48.746;9.174;2024-03-02T03:44:10;14.80;;;7.70;;
9914;SDS011;4996;48.746;9.174;2024-03-02T03:46:36;13.33;;;8.27;;
9914;SDS011;4996;48.746;9.174;2024-03-02T03:49:01;13.37;;;8.40;;
9914;SDS011;4996;48.746;9.174;2024-03-02T03:51:28;10.53;;;7.70;;
9914;SDS011;4996;48.746;9.174;2024-03-02T03:53:55;10.00;;;8.07;;
9914;SDS011;4996;48.746;9.174;2024-03-02T03:56:20;17.77;;;8.37;;
9914;SDS011;4996;48.746;9.174;2024-03-02T03:58:46;10.90;;;7.30;;
9914;SDS011;4996;48.746;9.174;2024-03-02T04:01:11;15.07;;;7.73;;
9914;SDS011;4996;48.746;9.174;2024-03-02T04:03:38;12.70;;;7.73;;
9914;SDS011;4996;48.746;9.174;2024-03-02T04:06:03;16.17;;;8.33;;
9914;SDS011;4996;48.746;9.174;2024-03-02T04:08:29;15.67;;;8.63;;
9914;SDS011;4996;48.746;9.174;2024-03-02T04:10:55;17.10;;;8.33;;
9914;SDS011;4996;48.746;9.174;2024-03-02T04:13:20;17.70;;;10.30;;
9914;SDS011;4996;48.746;9.174;2024-03-02T04:15:46;15.13;;;9.00;;
9914;SDS011;4996;48.746;9.174;2024-03-02T04:18:11;16.50;;;9.07;;
9914;SDS011;4996;48.746;9.174;2024-03-02T04:20:37;13.87;;;8.40;;
9914;SDS011;4996;48.746;9.174;2024-03-02T04:23:02;12.80;;;7.90;;
9914;SDS011;4996;48.746;9.174;2024-03-02T04:25:28;20.33;;;9.70;;
9914;SDS011;4996;48.746;9.174;2024-03-02T04:27:54;10.70;;;7.83;;
9914;SDS011;4996;48.746;9.174;2024-03-02T04:30:19;13.03;;;8.13;;
9914;SDS011;4996;48.746;9.174;2024-03-02T04:32:45;12.53;;;8.10;;
9914;SDS011;4996;48.746;9.174;2024-03-02T04:35:14;16.03;;;7.53;;
9914;SDS011;4996;48.746;9.174;2024-03-02T04:37:39;13.40;;;8.43;;
9914;SDS011;4996;48.746;9.174;2024-03-02T04:40:05;11.53;;;8.10;;
9914;SDS011;4996;48.746;9.174;2024-03-02T04:42:34;14.97;;;8.27;;
9914;SDS011;4996;48.746;9.174;2024-03-02T04:45:00;14.40;;;8.70;;
9914;SDS011;4996;48.746;9.174;2024-03-02T04:47:26;15.67;;;8.90;;
9914;SDS011;4996;48.746;9.174;2024-03-02T04:49:51;24.90;;;7.73;;
9914;SDS011;4996;48.746;9.174;2024-03-02T04:52:17;19.20;;;9.77;;
9914;SDS011;4996;48.746;9.174;2024-03-02T04:54:43;17.80;;;9.50;;
9914;SDS011;4996;48.746;9.174;2024-03-02T04:57:27;19.40;;;8.70;;
9914;SDS011;4996;48.746;9.174;2024-03-02T04:59:52;16.20;;;8.23;;
9914;SDS011;4996;48.746;9.174;2024-03-02T05:02:18;14.53;;;8.77;;
9914;SDS011;4996;48.746;9.174;2024-03-02T05:04:43;15.40;;;9.43;;
9914;SDS011;4996;48.746;9.174;2024-03-02T05:07:09;12.90;;;8.43;;
9914;SDS011;4996;48.746;9.174;2024-03-02T05:09:35;20.63;;;9.73;;
9914;SDS011;4996;48.746;9.174;2024-03-02T05:12:00;19.37;;;9.90;;
9914;SDS011;4996;48.746;9.174;2024-03-02T05:14:45;18.60;;;9.13;;
9914;SDS011;4996;48.746;9.174;2024-03-02T05:17:11;17.50;;;9.57;;
9914;SDS011;4996;48.746;9.174;2024-03-02T05:19:36;17.87;;;9.33;;
9914;SDS011;4996;48.746;9.174;2024-03-02T05:22:03;20.03;;;9.93;;
9914;SDS011;4996;48.746;9.174;2024-03-02T05:24:28;15.97;;;8.87;;
9914;SDS011;4996;48.746;9.174;2024-03-02T05:26:54;16.70;;;9.20;;
9914;SDS011;4996;48.746;9.174;2024-03-02T05:29:19;16.60;;;9.33;;
9914;SDS011;4996;48.746;9.174;2024-03-02T05:31:45;17.63;;;9.00;;
9914;SDS011;4996;48.746;9.174;2024-03-02T05:34:11;15.77;;;9.60;;
9914;SDS011;4996;48.746;9.174;2024-03-02T05:36:36;12.40;;;7.93;;
9914;SDS011;4996;48.746;9.174;2024-03-02T05:39:04;15.40;;;8.37;;
9914;SDS011;4996;48.746;9.174;2024-03-02T05:41:31;19.37;;;10.33;;
9914;SDS011;4996;48.746;9.174;2024-03-02T05:43:57;16.10;;;9.87;;
9914;SDS011;4996;48.746;9.174;2024-03-02T05:46:22;18.07;;;9.77;;
9914;SDS011;4996;48.746;9.174;2024-03-02T05:48:48;23.40;;;10.83;;
9914;SDS011;4996;48.746;9.174;2024-03-02T05:51:13;16.53;;;10.10;;
9914;SDS011;4996;48.746;9.174;2024-03-02T05:53:39;19.57;;;9.80;;
9914;SDS011;4996;48.746;9.174;2024-03-02T05:56:05;17.33;;;8.53;;
9914;SDS011;4996;48.746;9.174;2024-03-02T05:58:31;17.27;;;10.57;;
9914;SDS011;4996;48.746;9.174;2024-03-02T06:01:15;23.43;;;11.13;;
9914;SDS011;4996;48.746;9.174;2024-03-02T06:03:42;21.87;;;10.00;;
9914;SDS011;4996;48.746;9.174;2024-03-02T06:06:08;16.00;;;10.10;;
9914;SDS011;4996;48.746;9.174;2024-03-02T06:08:34;21.43;;;10.00;;
9914;SDS011;4996;48.746;9.174;2024-03-02T06:11:00;17.30;;;9.23;;
9914;SDS011;4996;48.746;9.174;2024-03-02T06:13:25;16.60;;;9.70;;
9914;SDS011;4996;48.746;9.174;2024-03-02T06:15:51;14.63;;;9.23;;
9914;SDS011;4996;48.746;9.174;2024-03-02T06:18:17;17.33;;;9.83;;
9914;SDS011;4996;48.746;9.174;2024-03-02T06:20:43;21.50;;;10.40;;
9914;SDS011;4996;48.746;9.174;2024-03-02T06:23:08;15.70;;;10.00;;
9914;SDS011;4996;48.746;9.174;2024-03-02T06:25:34;18.27;;;9.50;;
9914;SDS011;4996;48.746;9.174;2024-03-02T06:27:59;16.60;;;8.23;;
9914;SDS011;4996;48.746;9.174;2024-03-02T06:30:25;19.10;;;8.67;;
9914;SDS011;4996;48.746;9.174;2024-03-02T06:32:50;20.60;;;10.40;;
9914;SDS011;4996;48.746;9.174;2024-03-02T06:35:16;17.73;;;9.23;;
9914;SDS011;4996;48.746;9.174;2024-03-02T06:37:42;18.43;;;9.83;;
9914;SDS011;4996;48.746;9.174;2024-03-02T06:40:07;14.57;;;8.53;;
9914;SDS011;4996;48.746;9.174;2024-03-02T06:42:33;15.70;;;9.27;;
9914;SDS011;4996;48.746;9.174;2024-03-02T06:45:00;18.77;;;9.70;;
9914;SDS011;4996;48.746;9.174;2024-03-02T06:47:25;17.87;;;8.60;;
9914;SDS011;4996;48.746;9.174;2024-03-02T06:49:51;18.17;;;8.97;;
9914;SDS011;4996;48.746;9.174;2024-03-02T06:52:18;17.50;;;10.03;;
9914;SDS011;4996;48.746;9.174;2024-03-02T06:54:43;18.27;;;10.70;;
9914;SDS011;4996;48.746;9.174;2024-03-02T06:57:09;18.60;;;9.67;;
9914;SDS011;4996;48.746;9.174;2024-03-02T06:59:35;16.07;;;9.00;;
9914;SDS011;4996;48.746;9.174;2024-03-02T07:02:00;18.70;;;9.23;;
9914;SDS011;4996;48.746;9.174;2024-03-02T07:04:26;18.43;;;9.33;;
9914;SDS011;4996;48.746;9.174;2024-03-02T07:06:52;16.73;;;8.43;;
9914;SDS011;4996;48.746;9.174;2024-03-02T07:09:17;17.67;;;9.43;;
9914;SDS011;4996;48.746;9.174;2024-03-02T07:11:47;17.90;;;9.30;;
9914;SDS011;4996;48.746;9.174;2024-03-02T07:14:13;16.63;;;8.13;;
9914;SDS011;4996;48.746;9.174;2024-03-02T07:16:38;14.10;;;8.10;;
9914;SDS011;4996;48.746;9.174;2024-03-02T07:19:05;16.00;;;8.97;;
9914;SDS011;4996;48.746;9.174;2024-03-02T07:21:31;13.50;;;8.40;;
9914;SDS011;4996;48.746;9.174;2024-03-02T07:23:58;14.17;;;8.37;;
9914;SDS011;4996;48.746;9.174;2024-03-02T07:26:24;14.40;;;8.83;;
9914;SDS011;4996;48.746;9.174;2024-03-02T07:28:50;14.23;;;8.10;;
9914;SDS011;4996;48.746;9.174;2024-03-02T07:31:16;12.83;;;6.70;;
9914;SDS011;4996;48.746;9.174;2024-03-02T07:33:43;14.63;;;7.50;;
9914;SDS011;4996;48.746;9.174;2024-03-02T07:36:10;13.00;;;7.57;;
9914;SDS011;4996;48.746;9.174;2024-03-02T07:38:35;12.47;;;7.37;;
9914;SDS011;4996;48.746;9.174;2024-03-02T07:41:01;13.93;;;7.40;;
9914;SDS011;4996;48.746;9.174;2024-03-02T07:43:27;12.37;;;6.80;;
9914;SDS011;4996;48.746;9.174;2024-03-02T07:45:53;11.47;;;7.23;;
9914;SDS011;4996;48.746;9.174;2024-03-02T07:48:18;13.80;;;7.33;;
9914;SDS011;4996;48.746;9.174;2024-03-02T07:50:44;12.90;;;7.33;;
9914;SDS011;4996;48.746;9.174;2024-03-02T07:53:09;10.00;;;6.80;;
9914;SDS011;4996;48.746;9.174;2024-03-02T07:55:35;11.67;;;6.57;;
9914;SDS011;4996;48.746;9.174;2024-03-02T07:58:01;14.90;;;7.93;;
9914;SDS011;4996;48.746;9.174;2024-03-02T08:00:26;11.93;;;7.13;;
9914;SDS011;4996;48.746;9.174;2024-03-02T08:02:52;9.53;;;6.37;;
9914;SDS011;4996;48.746;9.174;2024-03-02T08:05:18;9.50;;;6.40;;
9914;SDS011;4996;48.746;9.174;2024-03-02T08:07:44;12.40;;;7.10;;
9914;SDS011;4996;48.746;9.174;2024-03-02T08:10:10;12.50;;;7.73;;
9914;SDS011;4996;48.746;9.174;2024-03-02T08:12:36;12.50;;;7.50;;
9914;SDS011;4996;48.746;9.174;2024-03-02T08:15:01;12.63;;;7.43;;
9914;SDS011;4996;48.746;9.174;2024-03-02T08:17:27;15.50;;;7.30;;
9914;SDS011;4996;48.746;9.174;2024-03-02T08:19:52;8.43;;;6.20;;
9914;SDS011;4996;48.746;9.174;2024-03-02T08:22:19;10.37;;;6.03;;
9914;SDS011;4996;48.746;9.174;2024-03-02T08:24:44;10.67;;;6.10;;
9914;SDS011;4996;48.746;9.174;2024-03-02T08:27:10;11.23;;;7.13;;
9914;SDS011;4996;48.746;9.174;2024-03-02T08:29:37;12.47;;;8.70;;
9914;SDS011;4996;48.746;9.174;2024-03-02T08:32:02;15.40;;;7.87;;
9914;SDS011;4996;48.746;9.174;2024-03-02T08:34:28;12.30;;;7.53;;
9914;SDS011;4996;48.746;9.174;2024-03-02T08:36:54;12.17;;;8.10;;
9914;SDS011;4996;48.746;9.174;2024-03-02T08:39:19;12.10;;;8.17;;
9914;SDS011;4996;48.746;9.174;2024-03-02T08:41:45;10.80;;;6.90;;
9914;SDS011;4996;48.746;9.174;2024-03-02T08:44:12;10.13;;;6.53;;
9914;SDS011;4996;48.746;9.174;2024-03-02T08:46:38;10.70;;;7.50;;
9914;SDS011;4996;48.746;9.174;2024-03-02T08:49:04;10.50;;;7.63;;
9914;SDS011;4996;48.746;9.174;2024-03-02T08:51:30;14.20;;;8.10;;
9914;SDS011;4996;48.746;9.174;2024-03-02T08:53:56;10.90;;;7.43;;
9914;SDS011;4996;48.746;9.174;2024-03-02T08:56:23;11.00;;;6.83;;
9914;SDS011;4996;48.746;9.174;2024-03-02T08:58:49;10.23;;;6.40;;
9914;SDS011;4996;48.746;9.174;2024-03-02T09:01:17;10.90;;;7.47;;
9914;SDS011;4996;48.746;9.174;2024-03-02T09:03:44;10.97;;;6.43;;
9914;SDS011;4996;48.746;9.174;2024-03-02T09:06:11;8.83;;;6.73;;
9914;SDS011;4996;48.746;9.174;2024-03-02T09:08:37;7.50;;;6.13;;
9914;SDS011;4996;48.746;9.174;2024-03-02T09:11:06;8.67;;;6.10;;
9914;SDS011;4996;48.746;9.174;2024-03-02T09:13:35;11.57;;;6.10;;
9914;SDS011;4996;48.746;9.174;2024-03-02T09:16:02;7.37;;;5.97;;
9914;SDS011;4996;48.746;9.174;2024-03-02T09:18:27;8.23;;;6.20;;
9914;SDS011;4996;48.746;9.174;2024-03-02T09:20:53;7.43;;;5.20;;
9914;SDS011;4996;48.746;9.174;2024-03-02T09:23:19;14.10;;;6.73;;
9914;SDS011;4996;48.746;9.174;2024-03-02T09:25:44;9.37;;;5.60;;
9914;SDS011;4996;48.746;9.174;2024-03-02T09:28:10;14.40;;;6.93;;
9914;SDS011;4996;48.746;9.174;2024-03-02T09:30:35;8.03;;;4.93;;
9914;SDS011;4996;48.746;9.174;2024-03-02T09:33:01;7.50;;;5.23;;
9914;SDS011;4996;48.746;9.174;2024-03-02T09:35:27;7.70;;;5.67;;
9914;SDS011;4996;48.746;9.174;2024-03-02T09:37:52;7.63;;;4.90;;
9914;SDS011;4996;48.746;9.174;2024-03-02T09:40:17;9.77;;;6.90;;
9914;SDS011;4996;48.746;9.174;2024-03-02T09:42:50;7.70;;;5.43;;
9914;SDS011;4996;48.746;9.174;2024-03-02T09:45:22;7.87;;;6.10;;
9914;SDS011;4996;48.746;9.174;2024-03-02T09:47:49;5.90;;;4.37;;
9914;SDS011;4996;48.746;9.174;2024-03-02T09:50:14;7.43;;;4.43;;
9914;SDS011;4996;48.746;9.174;2024-03-02T09:52:41;6.70;;;5.30;;
9914;SDS011;4996;48.746;9.174;2024-03-02T09:55:08;5.10;;;3.80;;
9914;SDS011;4996;48.746;9.174;2024-03-02T09:57:34;7.93;;;5.60;;
9914;SDS011;4996;48.746;9.174;2024-03-02T09:59:59;4.20;;;3.67;;
9914;SDS011;4996;48.746;9.174;2024-03-02T10:02:25;4.57;;;3.60;;
9914;SDS011;4996;48.746;9.174;2024-03-02T10:04:51;8.03;;;5.20;;
9914;SDS011;4996;48.746;9.174;2024-03-02T10:07:17;8.00;;;4.73;;
9914;SDS011;4996;48.746;9.174;2024-03-02T10:09:44;3.83;;;3.47;;
9914;SDS011;4996;48.746;9.174;2024-03-02T10:12:14;6.70;;;4.43;;
9914;SDS011;4996;48.746;9.174;2024-03-02T10:14:41;4.63;;;3.90;;
9914;SDS011;4996;48.746;9.174;2024-03-02T10:17:08;17.23;;;9.70;;
9914;SDS011;4996;48.746;9.174;2024-03-02T10:19:34;6.43;;;4.53;;
9914;SDS011;4996;48.746;9.174;2024-03-02T10:22:02;5.97;;;3.83;;
9914;SDS011;4996;48.746;9.174;2024-03-02T10:24:35;5.80;;;4.10;;
9914;SDS011;4996;48.746;9.174;2024-03-02T10:27:06;4.90;;;4.00;;
9914;SDS011;4996;48.746;9.174;2024-03-02T10:29:39;7.33;;;4.73;;
9914;SDS011;4996;48.746;9.174;2024-03-02T10:32:05;5.10;;;3.80;;
9914;SDS011;4996;48.746;9.174;2024-03-02T10:34:36;9.40;;;4.37;;
9914;SDS011;4996;48.746;9.174;2024-03-02T10:37:02;22.90;;;12.50;;
9914;SDS011;4996;48.746;9.174;2024-03-02T10:39:28;6.77;;;4.67;;
9914;SDS011;4996;48.746;9.174;2024-03-02T10:41:55;10.20;;;5.97;;
9914;SDS011;4996;48.746;9.174;2024-03-02T10:44:21;6.60;;;4.80;;
9914;SDS011;4996;48.746;9.174;2024-03-02T10:46:47;31.03;;;16.53;;
9914;SDS011;4996;48.746;9.174;2024-03-02T10:49:15;8.50;;;5.40;;
9914;SDS011;4996;48.746;9.174;2024-03-02T10:51:42;7.20;;;3.93;;
9914;SDS011;4996;48.746;9.174;2024-03-02T10:54:08;7.60;;;3.50;;
9914;SDS011;4996;48.746;9.174;2024-03-02T10:56:34;5.67;;;3.60;;
9914;SDS011;4996;48.746;9.174;2024-03-02T10:59:08;3.83;;;3.37;;
9914;SDS011;4996;48.746;9.174;2024-03-02T11:01:49;5.00;;;4.10;;
9914;SDS011;4996;48.746;9.174;2024-03-02T11:04:16;4.47;;;3.40;;
9914;SDS011;4996;48.746;9.174;2024-03-02T11:06:49;3.47;;;2.90;;
9914;SDS011;4996;48.746;9.174;2024-03-02T11:09:17;5.73;;;3.50;;
9914;SDS011;4996;48.746;9.174;2024-03-02T11:11:45;7.73;;;3.60;;
9914;SDS011;4996;48.746;9.174;2024-03-02T11:14:17;15.60;;;7.83;;
9914;SDS011;4996;48.746;9.174;2024-03-02T11:16:48;55.10;;;25.97;;
9914;SDS011;4996;48.746;9.174;2024-03-02T11:19:14;17.63;;;9.87;;
9914;SDS011;4996;48.746;9.174;2024-03-02T11:21:41;6.50;;;3.47;;
9914;SDS011;4996;48.746;9.174;2024-03-02T11:27:14;4.53;;;2.87;;
9914;SDS011;4996;48.746;9.174;2024-03-02T11:29:59;2.30;;;2.10;;
9914;SDS011;4996;48.746;9.174;2024-03-02T11:32:25;1.80;;;1.60;;
9914;SDS011;4996;48.746;9.174;2024-03-02T11:34:51;6.53;;;3.97;;
9914;SDS011;4996;48.746;9.174;2024-03-02T11:37:17;6.27;;;4.00;;
9914;SDS011;4996;48.746;9.174;2024-03-02T11:39:45;3.77;;;2.40;;
9914;SDS011;4996;48.746;9.174;2024-03-02T11:42:12;16.73;;;9.20;;
9914;SDS011;4996;48.746;9.174;2024-03-02T11:44:39;1.80;;;1.70;;
9914;SDS011;4996;48.746;9.174;2024-03-02T11:47:07;2.30;;;1.67;;
9914;SDS011;4996;48.746;9.174;2024-03-02T11:52:31;1.70;;;1.40;;
9914;SDS011;4996;48.746;9.174;2024-03-02T11:54:58;3.20;;;2.33;;
9914;SDS011;4996;48.746;9.174;2024-03-02T11:57:25;1.80;;;1.53;;
9914;SDS011;4996;48.746;9.174;2024-03-02T11:59:52;4.30;;;2.93;;
9914;SDS011;4996;48.746;9.174;2024-03-02T12:02:21;5.73;;;3.60;;
9914;SDS011;4996;48.746;9.174;2024-03-02T12:04:47;1.40;;;1.13;;
9914;SDS011;4996;48.746;9.174;2024-03-02T12:07:23;3.17;;;1.63;;
9914;SDS011;4996;48.746;9.174;2024-03-02T12:09:49;6.03;;;3.70;;
9914;SDS011;4996;48.746;9.174;2024-03-02T12:12:25;1.60;;;1.50;;
9914;SDS011;4996;48.746;9.174;2024-03-02T12:14:51;1.10;;;0.90;;
9914;SDS011;4996;48.746;9.174;2024-03-02T12:17:20;1.10;;;0.93;;
9914;SDS011;4996;48.746;9.174;2024-03-02T12:19:47;1.10;;;0.70;;
9914;SDS011;4996;48.746;9.174;2024-03-02T12:22:13;6.23;;;1.00;;
9914;SDS011;4996;48.746;9.174;2024-03-02T12:24:38;1.83;;;1.20;;
9914;SDS011;4996;48.746;9.174;2024-03-02T12:27:07;1.27;;;1.13;;
9914;SDS011;4996;48.746;9.174;2024-03-02T12:29:33;3.37;;;1.30;;
9914;SDS011;4996;48.746;9.174;2024-03-02T12:31:59;2.67;;;1.90;;
9914;SDS011;4996;48.746;9.174;2024-03-02T12:34:26;3.43;;;2.77;;
9914;SDS011;4996;48.746;9.174;2024-03-02T12:36:52;1.87;;;1.60;;
9914;SDS011;4996;48.746;9.174;2024-03-02T12:39:21;5.80;;;1.60;;
9914;SDS011;4996;48.746;9.174;2024-03-02T12:41:48;3.23;;;1.77;;
9914;SDS011;4996;48.746;9.174;2024-03-02T12:44:15;4.03;;;2.17;;
9914;SDS011;4996;48.746;9.174;2024-03-02T12:46:45;2.50;;;1.53;;
9914;SDS011;4996;48.746;9.174;2024-03-02T12:49:11;2.30;;;1.50;;
9914;SDS011;4996;48.746;9.174;2024-03-02T12:51:39;1.47;;;1.37;;
9914;SDS011;4996;48.746;9.174;2024-03-02T12:54:09;1.30;;;1.20;;
9914;SDS011;4996;48.746;9.174;2024-03-02T12:56:35;2.10;;;1.60;;
9914;SDS011;4996;48.746;9.174;2024-03-02T12:59:03;1.63;;;1.30;;
9914;SDS011;4996;48.746;9.174;2024-03-02T13:01:29;1.53;;;1.20;;
9914;SDS011;4996;48.746;9.174;2024-03-02T13:03:54;1.73;;;1.40;;
9914;SDS011;4996;48.746;9.174;2024-03-02T13:06:20;1.30;;;1.20;;
9914;SDS011;4996;48.746;9.174;2024-03-02T13:08:46;1.70;;;1.20;;
9914;SDS011;4996;48.746;9.174;2024-03-02T13:11:12;2.03;;;1.40;;
9914;SDS011;4996;48.746;9.174;2024-03-02T13:13:38;3.30;;;2.17;;
9914;SDS011;4996;48.746;9.174;2024-03-02T13:16:12;3.20;;;2.20;;
9914;SDS011;4996;48.746;9.174;2024-03-02T13:18:38;2.23;;;1.73;;
9914;SDS011;4996;48.746;9.174;2024-03-02T13:21:04;2.27;;;1.30;;
9914;SDS011;4996;48.746;9.174;2024-03-02T13:23:30;1.50;;;1.10;;
9914;SDS011;4996;48.746;9.174;2024-03-02T13:25:56;1.97;;;1.43;;
9914;SDS011;4996;48.746;9.174;2024-03-02T13:28:23;1.97;;;1.17;;
9914;SDS011;4996;48.746;9.174;2024-03-02T13:30:52;1.50;;;1.27;;
9914;SDS011;4996;48.746;9.174;2024-03-02T13:33:17;2.07;;;1.40;;
9914;SDS011;4996;48.746;9.174;2024-03-02T13:35:49;1.57;;;1.47;;
9914;SDS011;4996;48.746;9.174;2024-03-02T13:38:16;3.10;;;1.67;;
9914;SDS011;4996;48.746;9.174;2024-03-02T13:40:45;1.37;;;1.23;;
9914;SDS011;4996;48.746;9.174;2024-03-02T13:43:12;3.80;;;1.10;;
9914;SDS011;4996;48.746;9.174;2024-03-02T13:45:38;1.07;;;0.97;;
9914;SDS011;4996;48.746;9.174;2024-03-02T13:48:04;1.17;;;1.00;;
9914;SDS011;4996;48.746;9.174;2024-03-02T13:50:30;1.33;;;0.90;;
9914;SDS011;4996;48.746;9.174;2024-03-02T13:52:55;1.70;;;1.10;;
9914;SDS011;4996;48.746;9.174;2024-03-02T13:55:21;1.40;;;1.30;;
9914;SDS011;4996;48.746;9.174;2024-03-02T13:57:47;1.13;;;1.03;;
9914;SDS011;4996;48.746;9.174;2024-03-02T14:00:15;2.03;;;1.37;;
9914;SDS011;4996;48.746;9.174;2024-03-02T14:02:42;2.50;;;1.10;;
9914;SDS011;4996;48.746;9.174;2024-03-02T14:05:08;1.63;;;1.03;;
9914;SDS011;4996;48.746;9.174;2024-03-02T14:07:37;1.73;;;0.93;;
9914;SDS011;4996;48.746;9.174;2024-03-02T14:10:03;2.80;;;1.33;;
9914;SDS011;4996;48.746;9.174;2024-03-02T14:12:29;2.03;;;1.40;;
9914;SDS011;4996;48.746;9.174;2024-03-02T14:14:54;2.03;;;1.07;;
9914;SDS011;4996;48.746;9.174;2024-03-02T14:17:23;2.17;;;0.70;;
9914;SDS011;4996;48.746;9.174;2024-03-02T14:19:49;1.40;;;1.20;;
9914;SDS011;4996;48.746;9.174;2024-03-02T14:22:14;1.73;;;1.00;;
9914;SDS011;4996;48.746;9.174;2024-03-02T14:24:42;1.30;;;1.10;;
9914;SDS011;4996;48.746;9.174;2024-03-02T14:27:08;1.83;;;1.23;;
9914;SDS011;4996;48.746;9.174;2024-03-02T14:29:34;2.03;;;1.13;;
9914;SDS011;4996;48.746;9.174;2024-03-02T14:32:02;1.40;;;1.20;;
9914;SDS011;4996;48.746;9.174;2024-03-02T14:34:28;1.20;;;1.00;;
9914;SDS011;4996;48.746;9.174;2024-03-02T14:36:54;1.53;;;1.40;;
9914;SDS011;4996;48.746;9.174;2024-03-02T14:39:20;1.93;;;1.40;;
9914;SDS011;4996;48.746;9.174;2024-03-02T14:41:45;2.03;;;1.30;;
9914;SDS011;4996;48.746;9.174;2024-03-02T14:44:11;2.40;;;1.00;;
9914;SDS011;4996;48.746;9.174;2024-03-02T14:46:37;2.00;;;1.00;;
9914;SDS011;4996;48.746;9.174;2024-03-02T14:49:02;0.97;;;0.90;;
9914;SDS011;4996;48.746;9.174;2024-03-02T14:51:28;1.23;;;1.13;;
9914;SDS011;4996;48.746;9.174;2024-03-02T14:53:55;2.33;;;1.07;;
9914;SDS011;4996;48.746;9.174;2024-03-02T14:56:20;3.00;;;1.73;;
9914;SDS011;4996;48.746;9.174;2024-03-02T14:58:46;1.30;;;0.77;;
9914;SDS011;4996;48.746;9.174;2024-03-02T15:01:11;2.60;;;1.00;;
9914;SDS011;4996;48.746;9.174;2024-03-02T15:03:38;1.07;;;0.80;;
9914;SDS011;4996;48.746;9.174;2024-03-02T15:06:03;0.93;;;0.80;;
9914;SDS011;4996;48.746;9.174;2024-03-02T15:08:29;4.13;;;1.03;;
9914;SDS011;4996;48.746;9.174;2024-03-02T15:10:55;2.30;;;1.83;;
9914;SDS011;4996;48.746;9.174;2024-03-02T15:13:22;1.57;;;1.20;;